sensor_id;sensor_type;location;lat;lon;timestamp;P1;durP1;ratioP1;P2;durP2;ratioP2
51927;SDS011;37953;52.806;18.270;2022-10-26T00:00:07;14.52;;;7.18;;
51927;SDS011;37953;52.806;18.270;2022-10-26T00:02:54;14.98;;;7.78;;
51927;SDS011;37953;52.806;18.270;2022-10-26T00:05:21;12.32;;;7.40;;
51927;SDS011;37953;52.806;18.270;2022-10-26T00:07:48;15.68;;;6.85;;
51927;SDS011;37953;52.806;18.270;2022-10-26T00:10:15;11.63;;;6.38;;
51927;SDS011;37953;52.806;18.270;2022-10-26T00:12:41;12.32;;;7.15;;
51927;SDS011;37953;52.806;18.270;2022-10-26T00:15:08;17.98;;;6.75;;
51927;SDS011;37953;52.806;18.270;2022-10-26T00:17:34;16.13;;;7.20;;
51927;SDS011;37953;52.806;18.270;2022-10-26T00:20:00;12.43;;;6.80;;
51927;SDS011;37953;52.806;18.270;2022-10-26T00:22:26;14.80;;;6.95;;
51927;SDS011;37953;52.806;18.270;2022-10-26T00:24:53;17.65;;;6.60;;
51927;SDS011;37953;52.806;18.270;2022-10-26T00:27:18;14.70;;;6.43;;
51927;SDS011;37953;52.806;18.270;2022-10-26T00:29:45;15.98;;;6.07;;
51927;SDS011;37953;52.806;18.270;2022-10-26T00:32:11;12.95;;;6.05;;
51927;SDS011;37953;52.806;18.270;2022-10-26T00:34:37;12.00;;;6.38;;
51927;SDS011;37953;52.806;18.270;2022-10-26T00:37:02;10.90;;;6.55;;
51927;SDS011;37953;52.806;18.270;2022-10-26T00:39:29;13.15;;;6.47;;
51927;SDS011;37953;52.806;18.270;2022-10-26T00:41:54;17.25;;;7.13;;
51927;SDS011;37953;52.806;18.270;2022-10-26T00:50:32;11.90;;;6.22;;
51927;SDS011;37953;52.806;18.270;2022-10-26T00:53:05;14.93;;;7.00;;
51927;SDS011;37953;52.806;18.270;2022-10-26T00:55:46;17.75;;;6.80;;
51927;SDS011;37953;52.806;18.270;2022-10-26T00:58:17;14.30;;;6.50;;
51927;SDS011;37953;52.806;18.270;2022-10-26T01:00:45;13.68;;;6.43;;
51927;SDS011;37953;52.806;18.270;2022-10-26T01:03:17;13.73;;;7.15;;
51927;SDS011;37953;52.806;18.270;2022-10-26T01:05:45;11.90;;;7.32;;
51927;SDS011;37953;52.806;18.270;2022-10-26T01:08:13;16.55;;;7.93;;
51927;SDS011;37953;52.806;18.270;2022-10-26T01:10:41;15.27;;;7.88;;
51927;SDS011;37953;52.806;18.270;2022-10-26T01:13:08;14.63;;;7.78;;
51927;SDS011;37953;52.806;18.270;2022-10-26T01:15:38;15.10;;;7.68;;
51927;SDS011;37953;52.806;18.270;2022-10-26T01:18:20;13.35;;;7.82;;
51927;SDS011;37953;52.806;18.270;2022-10-26T01:26:51;16.65;;;8.02;;
51927;SDS011;37953;52.806;18.270;2022-10-26T01:32:13;15.25;;;7.00;;
51927;SDS011;37953;52.806;18.270;2022-10-26T01:35:23;14.55;;;7.07;;
51927;SDS011;37953;52.806;18.270;2022-10-26T01:41:01;14.45;;;7.10;;
51927;SDS011;37953;52.806;18.270;2022-10-26T01:43:45;15.60;;;7.18;;
51927;SDS011;37953;52.806;18.270;2022-10-26T01:46:18;13.05;;;7.25;;
51927;SDS011;37953;52.806;18.270;2022-10-26T01:48:52;10.30;;;6.00;;
51927;SDS011;37953;52.806;18.270;2022-10-26T01:51:24;12.07;;;6.65;;
51927;SDS011;37953;52.806;18.270;2022-10-26T01:53:52;10.63;;;6.28;;
51927;SDS011;37953;52.806;18.270;2022-10-26T01:56:31;11.15;;;6.30;;
51927;SDS011;37953;52.806;18.270;2022-10-26T02:05:08;10.27;;;6.38;;
51927;SDS011;37953;52.806;18.270;2022-10-26T02:10:32;12.43;;;7.03;;
51927;SDS011;37953;52.806;18.270;2022-10-26T02:13:17;16.50;;;7.30;;
51927;SDS011;37953;52.806;18.270;2022-10-26T02:15:56;14.23;;;6.90;;
51927;SDS011;37953;52.806;18.270;2022-10-26T02:18:29;15.88;;;6.80;;
51927;SDS011;37953;52.806;18.270;2022-10-26T02:21:17;14.48;;;7.85;;
51927;SDS011;37953;52.806;18.270;2022-10-26T02:23:47;14.02;;;6.97;;
51927;SDS011;37953;52.806;18.270;2022-10-26T02:26:17;11.75;;;7.35;;
51927;SDS011;37953;52.806;18.270;2022-10-26T02:28:53;14.13;;;7.10;;
51927;SDS011;37953;52.806;18.270;2022-10-26T02:31:27;13.30;;;7.13;;
51927;SDS011;37953;52.806;18.270;2022-10-26T02:33:56;17.33;;;6.80;;
51927;SDS011;37953;52.806;18.270;2022-10-26T02:36:27;13.95;;;6.80;;
51927;SDS011;37953;52.806;18.270;2022-10-26T02:39:00;16.55;;;7.82;;
51927;SDS011;37953;52.806;18.270;2022-10-26T02:41:29;18.13;;;8.77;;
51927;SDS011;37953;52.806;18.270;2022-10-26T02:44:01;20.80;;;8.98;;
51927;SDS011;37953;52.806;18.270;2022-10-26T02:49:05;20.33;;;10.30;;
51927;SDS011;37953;52.806;18.270;2022-10-26T02:54:27;25.20;;;11.50;;
51927;SDS011;37953;52.806;18.270;2022-10-26T02:56:59;25.00;;;12.02;;
51927;SDS011;37953;52.806;18.270;2022-10-26T02:59:35;22.00;;;10.60;;
51927;SDS011;37953;52.806;18.270;2022-10-26T03:02:05;28.80;;;12.57;;
51927;SDS011;37953;52.806;18.270;2022-10-26T03:04:36;28.65;;;12.05;;
51927;SDS011;37953;52.806;18.270;2022-10-26T03:07:02;26.40;;;12.05;;
51927;SDS011;37953;52.806;18.270;2022-10-26T03:09:28;26.08;;;12.30;;
51927;SDS011;37953;52.806;18.270;2022-10-26T03:11:54;29.20;;;12.15;;
51927;SDS011;37953;52.806;18.270;2022-10-26T03:14:26;21.08;;;11.18;;
51927;SDS011;37953;52.806;18.270;2022-10-26T03:16:52;22.80;;;11.13;;
51927;SDS011;37953;52.806;18.270;2022-10-26T03:19:18;16.83;;;10.02;;
51927;SDS011;37953;52.806;18.270;2022-10-26T03:21:45;22.23;;;10.93;;
51927;SDS011;37953;52.806;18.270;2022-10-26T03:24:12;20.92;;;10.68;;
51927;SDS011;37953;52.806;18.270;2022-10-26T03:26:38;19.25;;;11.27;;
51927;SDS011;37953;52.806;18.270;2022-10-26T03:29:04;28.50;;;13.27;;
51927;SDS011;37953;52.806;18.270;2022-10-26T03:31:30;24.30;;;12.80;;
51927;SDS011;37953;52.806;18.270;2022-10-26T03:33:56;22.73;;;12.02;;
51927;SDS011;37953;52.806;18.270;2022-10-26T03:36:22;19.92;;;11.82;;
51927;SDS011;37953;52.806;18.270;2022-10-26T03:38:48;19.55;;;11.35;;
51927;SDS011;37953;52.806;18.270;2022-10-26T03:41:14;20.60;;;11.23;;
51927;SDS011;37953;52.806;18.270;2022-10-26T03:43:40;25.98;;;11.43;;
51927;SDS011;37953;52.806;18.270;2022-10-26T03:46:06;21.35;;;11.68;;
51927;SDS011;37953;52.806;18.270;2022-10-26T03:48:32;23.75;;;11.43;;
51927;SDS011;37953;52.806;18.270;2022-10-26T03:50:58;20.52;;;11.45;;
51927;SDS011;37953;52.806;18.270;2022-10-26T03:53:25;23.00;;;11.70;;
51927;SDS011;37953;52.806;18.270;2022-10-26T03:55:51;20.75;;;11.63;;
51927;SDS011;37953;52.806;18.270;2022-10-26T03:58:17;19.17;;;11.00;;
51927;SDS011;37953;52.806;18.270;2022-10-26T04:00:43;20.70;;;11.80;;
51927;SDS011;37953;52.806;18.270;2022-10-26T04:03:09;20.67;;;12.02;;
51927;SDS011;37953;52.806;18.270;2022-10-26T04:05:35;27.35;;;11.85;;
51927;SDS011;37953;52.806;18.270;2022-10-26T04:08:01;22.35;;;11.68;;
51927;SDS011;37953;52.806;18.270;2022-10-26T04:10:28;26.40;;;11.70;;
51927;SDS011;37953;52.806;18.270;2022-10-26T04:12:54;23.45;;;12.18;;
51927;SDS011;37953;52.806;18.270;2022-10-26T04:15:22;19.20;;;11.55;;
51927;SDS011;37953;52.806;18.270;2022-10-26T04:17:48;24.52;;;11.82;;
51927;SDS011;37953;52.806;18.270;2022-10-26T04:20:28;23.33;;;10.90;;
51927;SDS011;37953;52.806;18.270;2022-10-26T04:22:56;19.75;;;10.93;;
51927;SDS011;37953;52.806;18.270;2022-10-26T04:25:26;18.08;;;10.95;;
51927;SDS011;37953;52.806;18.270;2022-10-26T04:27:53;21.60;;;11.48;;
51927;SDS011;37953;52.806;18.270;2022-10-26T04:30:19;24.02;;;11.85;;
51927;SDS011;37953;52.806;18.270;2022-10-26T04:32:48;21.75;;;11.95;;
51927;SDS011;37953;52.806;18.270;2022-10-26T04:35:15;27.42;;;13.25;;
51927;SDS011;37953;52.806;18.270;2022-10-26T04:37:41;28.85;;;13.73;;
51927;SDS011;37953;52.806;18.270;2022-10-26T04:40:07;30.17;;;12.65;;
51927;SDS011;37953;52.806;18.270;2022-10-26T04:42:40;25.40;;;12.20;;
51927;SDS011;37953;52.806;18.270;2022-10-26T04:45:10;17.15;;;10.82;;
51927;SDS011;37953;52.806;18.270;2022-10-26T04:47:37;17.00;;;10.73;;
51927;SDS011;37953;52.806;18.270;2022-10-26T04:50:04;16.70;;;10.85;;
51927;SDS011;37953;52.806;18.270;2022-10-26T04:52:34;19.67;;;11.25;;
51927;SDS011;37953;52.806;18.270;2022-10-26T04:55:00;22.65;;;12.20;;
51927;SDS011;37953;52.806;18.270;2022-10-26T04:57:33;20.85;;;11.98;;
51927;SDS011;37953;52.806;18.270;2022-10-26T05:00:00;26.65;;;12.68;;
51927;SDS011;37953;52.806;18.270;2022-10-26T05:02:28;25.50;;;12.77;;
51927;SDS011;37953;52.806;18.270;2022-10-26T05:04:54;23.40;;;12.88;;
51927;SDS011;37953;52.806;18.270;2022-10-26T05:07:20;22.33;;;12.75;;
51927;SDS011;37953;52.806;18.270;2022-10-26T05:09:46;20.52;;;12.45;;
51927;SDS011;37953;52.806;18.270;2022-10-26T05:12:12;20.88;;;12.30;;
51927;SDS011;37953;52.806;18.270;2022-10-26T05:14:39;23.52;;;13.13;;
51927;SDS011;37953;52.806;18.270;2022-10-26T05:17:04;24.15;;;12.73;;
51927;SDS011;37953;52.806;18.270;2022-10-26T05:19:31;23.33;;;12.63;;
51927;SDS011;37953;52.806;18.270;2022-10-26T05:21:56;20.40;;;12.55;;
51927;SDS011;37953;52.806;18.270;2022-10-26T05:24:23;21.48;;;12.52;;
51927;SDS011;37953;52.806;18.270;2022-10-26T05:26:49;22.48;;;11.85;;
51927;SDS011;37953;52.806;18.270;2022-10-26T05:29:15;18.42;;;11.52;;
51927;SDS011;37953;52.806;18.270;2022-10-26T05:31:41;22.60;;;12.68;;
51927;SDS011;37953;52.806;18.270;2022-10-26T05:34:07;22.67;;;13.05;;
51927;SDS011;37953;52.806;18.270;2022-10-26T05:36:33;22.15;;;13.15;;
51927;SDS011;37953;52.806;18.270;2022-10-26T05:38:59;21.05;;;12.13;;
51927;SDS011;37953;52.806;18.270;2022-10-26T05:41:25;19.88;;;12.15;;
51927;SDS011;37953;52.806;18.270;2022-10-26T05:43:52;18.55;;;11.63;;
51927;SDS011;37953;52.806;18.270;2022-10-26T05:46:20;29.65;;;11.77;;
51927;SDS011;37953;52.806;18.270;2022-10-26T05:48:47;24.15;;;11.57;;
51927;SDS011;37953;52.806;18.270;2022-10-26T05:51:13;25.80;;;13.15;;
51927;SDS011;37953;52.806;18.270;2022-10-26T05:53:39;39.10;;;15.02;;
51927;SDS011;37953;52.806;18.270;2022-10-26T05:56:12;35.35;;;15.70;;
51927;SDS011;37953;52.806;18.270;2022-10-26T05:58:47;29.55;;;13.98;;
51927;SDS011;37953;52.806;18.270;2022-10-26T06:06:52;111.07;;;27.05;;
51927;SDS011;37953;52.806;18.270;2022-10-26T06:09:49;112.20;;;29.30;;
51927;SDS011;37953;52.806;18.270;2022-10-26T06:12:15;124.03;;;30.45;;
51927;SDS011;37953;52.806;18.270;2022-10-26T06:14:42;196.40;;;36.65;;
51927;SDS011;37953;52.806;18.270;2022-10-26T06:22:43;88.28;;;25.35;;
51927;SDS011;37953;52.806;18.270;2022-10-26T06:31:13;51.83;;;18.55;;
51927;SDS011;37953;52.806;18.270;2022-10-26T06:33:39;46.95;;;18.50;;
51927;SDS011;37953;52.806;18.270;2022-10-26T06:38:57;91.63;;;28.60;;
51927;SDS011;37953;52.806;18.270;2022-10-26T06:41:29;122.88;;;36.20;;
51927;SDS011;37953;52.806;18.270;2022-10-26T06:43:57;146.85;;;38.60;;
51927;SDS011;37953;52.806;18.270;2022-10-26T06:46:38;149.20;;;37.15;;
51927;SDS011;37953;52.806;18.270;2022-10-26T06:55:11;99.18;;;27.27;;
51927;SDS011;37953;52.806;18.270;2022-10-26T06:57:17;79.10;;;24.98;;
51927;SDS011;37953;52.806;18.270;2022-10-26T06:59:49;68.38;;;23.45;;
51927;SDS011;37953;52.806;18.270;2022-10-26T07:02:21;66.00;;;23.48;;
51927;SDS011;37953;52.806;18.270;2022-10-26T07:04:48;61.92;;;22.27;;
51927;SDS011;37953;52.806;18.270;2022-10-26T07:07:18;52.42;;;21.10;;
51927;SDS011;37953;52.806;18.270;2022-10-26T07:09:50;46.20;;;18.85;;
51927;SDS011;37953;52.806;18.270;2022-10-26T07:12:16;39.17;;;17.63;;
51927;SDS011;37953;52.806;18.270;2022-10-26T07:14:42;116.13;;;22.05;;
51927;SDS011;37953;52.806;18.270;2022-10-26T07:17:08;48.83;;;17.88;;
51927;SDS011;37953;52.806;18.270;2022-10-26T07:19:34;45.10;;;16.83;;
51927;SDS011;37953;52.806;18.270;2022-10-26T07:22:01;40.33;;;15.25;;
51927;SDS011;37953;52.806;18.270;2022-10-26T07:24:27;41.13;;;15.57;;
51927;SDS011;37953;52.806;18.270;2022-10-26T07:26:54;35.75;;;14.98;;
51927;SDS011;37953;52.806;18.270;2022-10-26T07:29:27;31.33;;;13.75;;
51927;SDS011;37953;52.806;18.270;2022-10-26T07:31:53;24.75;;;12.27;;
51927;SDS011;37953;52.806;18.270;2022-10-26T07:34:19;24.85;;;12.95;;
51927;SDS011;37953;52.806;18.270;2022-10-26T07:36:45;23.17;;;12.82;;
51927;SDS011;37953;52.806;18.270;2022-10-26T07:39:13;26.05;;;13.00;;
51927;SDS011;37953;52.806;18.270;2022-10-26T07:41:39;20.48;;;12.80;;
51927;SDS011;37953;52.806;18.270;2022-10-26T07:44:05;22.48;;;13.32;;
51927;SDS011;37953;52.806;18.270;2022-10-26T07:46:31;21.52;;;13.40;;
51927;SDS011;37953;52.806;18.270;2022-10-26T07:48:57;26.02;;;14.60;;
51927;SDS011;37953;52.806;18.270;2022-10-26T07:51:23;28.35;;;13.93;;
51927;SDS011;37953;52.806;18.270;2022-10-26T07:53:50;28.30;;;15.98;;
51927;SDS011;37953;52.806;18.270;2022-10-26T07:56:16;29.33;;;15.82;;
51927;SDS011;37953;52.806;18.270;2022-10-26T07:58:42;30.95;;;15.80;;
51927;SDS011;37953;52.806;18.270;2022-10-26T08:01:09;26.90;;;14.35;;
51927;SDS011;37953;52.806;18.270;2022-10-26T08:03:43;24.25;;;13.13;;
51927;SDS011;37953;52.806;18.270;2022-10-26T08:06:10;20.75;;;12.77;;
51927;SDS011;37953;52.806;18.270;2022-10-26T08:08:39;20.58;;;12.25;;
51927;SDS011;37953;52.806;18.270;2022-10-26T08:11:05;17.92;;;11.30;;
51927;SDS011;37953;52.806;18.270;2022-10-26T08:13:31;20.95;;;11.75;;
51927;SDS011;37953;52.806;18.270;2022-10-26T08:16:01;36.63;;;16.15;;
51927;SDS011;37953;52.806;18.270;2022-10-26T08:18:32;41.72;;;17.98;;
51927;SDS011;37953;52.806;18.270;2022-10-26T08:21:05;39.03;;;17.75;;
51927;SDS011;37953;52.806;18.270;2022-10-26T08:23:34;31.63;;;15.63;;
51927;SDS011;37953;52.806;18.270;2022-10-26T08:26:01;26.83;;;14.65;;
51927;SDS011;37953;52.806;18.270;2022-10-26T08:28:28;27.42;;;14.55;;
51927;SDS011;37953;52.806;18.270;2022-10-26T08:30:55;23.77;;;14.48;;
51927;SDS011;37953;52.806;18.270;2022-10-26T08:33:22;57.30;;;17.30;;
51927;SDS011;37953;52.806;18.270;2022-10-26T08:35:55;41.15;;;16.42;;
51927;SDS011;37953;52.806;18.270;2022-10-26T08:38:24;35.58;;;16.45;;
51927;SDS011;37953;52.806;18.270;2022-10-26T08:40:57;29.42;;;16.30;;
51927;SDS011;37953;52.806;18.270;2022-10-26T08:43:24;46.17;;;20.30;;
51927;SDS011;37953;52.806;18.270;2022-10-26T08:48:34;41.33;;;19.38;;
51927;SDS011;37953;52.806;18.270;2022-10-26T08:51:06;48.00;;;20.40;;
51927;SDS011;37953;52.806;18.270;2022-10-26T08:56:43;41.50;;;19.25;;
51927;SDS011;37953;52.806;18.270;2022-10-26T09:02:15;38.63;;;15.88;;
51927;SDS011;37953;52.806;18.270;2022-10-26T09:04:42;35.70;;;17.00;;
51927;SDS011;37953;52.806;18.270;2022-10-26T09:07:18;44.42;;;18.92;;
51927;SDS011;37953;52.806;18.270;2022-10-26T09:16:03;48.33;;;21.02;;
51927;SDS011;37953;52.806;18.270;2022-10-26T09:29:50;30.75;;;15.65;;
51927;SDS011;37953;52.806;18.270;2022-10-26T09:32:17;29.75;;;16.20;;
51927;SDS011;37953;52.806;18.270;2022-10-26T09:35:00;25.23;;;14.80;;
51927;SDS011;37953;52.806;18.270;2022-10-26T09:37:31;23.80;;;13.77;;
51927;SDS011;37953;52.806;18.270;2022-10-26T09:42:40;23.25;;;13.10;;
51927;SDS011;37953;52.806;18.270;2022-10-26T09:47:52;38.97;;;18.73;;
51927;SDS011;37953;52.806;18.270;2022-10-26T09:50:30;33.50;;;16.55;;
51927;SDS011;37953;52.806;18.270;2022-10-26T09:53:00;26.55;;;15.40;;
51927;SDS011;37953;52.806;18.270;2022-10-26T09:55:30;23.80;;;13.30;;
51927;SDS011;37953;52.806;18.270;2022-10-26T09:57:59;38.65;;;14.27;;
51927;SDS011;37953;52.806;18.270;2022-10-26T10:00:34;26.83;;;13.18;;
51927;SDS011;37953;52.806;18.270;2022-10-26T10:03:02;25.92;;;13.35;;
51927;SDS011;37953;52.806;18.270;2022-10-26T10:05:52;28.85;;;14.93;;
51927;SDS011;37953;52.806;18.270;2022-10-26T10:08:40;23.33;;;14.02;;
51927;SDS011;37953;52.806;18.270;2022-10-26T10:11:08;24.55;;;14.48;;
51927;SDS011;37953;52.806;18.270;2022-10-26T10:13:37;24.50;;;14.10;;
51927;SDS011;37953;52.806;18.270;2022-10-26T10:16:23;28.83;;;15.80;;
51927;SDS011;37953;52.806;18.270;2022-10-26T10:18:53;36.65;;;18.38;;
51927;SDS011;37953;52.806;18.270;2022-10-26T10:21:34;38.72;;;19.10;;
51927;SDS011;37953;52.806;18.270;2022-10-26T10:24:03;40.90;;;19.25;;
51927;SDS011;37953;52.806;18.270;2022-10-26T10:26:55;61.63;;;21.42;;
51927;SDS011;37953;52.806;18.270;2022-10-26T10:29:32;40.85;;;18.58;;
51927;SDS011;37953;52.806;18.270;2022-10-26T10:32:00;35.65;;;17.38;;
51927;SDS011;37953;52.806;18.270;2022-10-26T10:34:31;38.08;;;18.38;;
51927;SDS011;37953;52.806;18.270;2022-10-26T10:36:59;35.95;;;17.70;;
51927;SDS011;37953;52.806;18.270;2022-10-26T10:39:39;34.78;;;18.30;;
51927;SDS011;37953;52.806;18.270;2022-10-26T10:42:13;39.80;;;19.38;;
51927;SDS011;37953;52.806;18.270;2022-10-26T10:47:20;42.80;;;21.25;;
51927;SDS011;37953;52.806;18.270;2022-10-26T10:50:22;39.45;;;20.73;;
51927;SDS011;37953;52.806;18.270;2022-10-26T10:52:44;43.70;;;22.60;;
51927;SDS011;37953;52.806;18.270;2022-10-26T11:00:24;67.80;;;34.25;;
51927;SDS011;37953;52.806;18.270;2022-10-26T11:02:54;78.15;;;34.67;;
51927;SDS011;37953;52.806;18.270;2022-10-26T11:08:18;66.35;;;32.80;;
51927;SDS011;37953;52.806;18.270;2022-10-26T11:10:53;67.93;;;32.70;;
51927;SDS011;37953;52.806;18.270;2022-10-26T11:19:34;61.47;;;29.05;;
51927;SDS011;37953;52.806;18.270;2022-10-26T11:22:03;59.83;;;29.45;;
51927;SDS011;37953;52.806;18.270;2022-10-26T11:24:46;52.88;;;27.00;;
51927;SDS011;37953;52.806;18.270;2022-10-26T11:27:23;58.50;;;27.98;;
51927;SDS011;37953;52.806;18.270;2022-10-26T11:32:28;49.00;;;23.45;;
51927;SDS011;37953;52.806;18.270;2022-10-26T11:38:01;47.58;;;24.10;;
51927;SDS011;37953;52.806;18.270;2022-10-26T11:43:04;57.05;;;26.73;;
51927;SDS011;37953;52.806;18.270;2022-10-26T11:45:33;31.88;;;19.50;;
51927;SDS011;37953;52.806;18.270;2022-10-26T11:50:49;31.42;;;18.15;;
51927;SDS011;37953;52.806;18.270;2022-10-26T11:53:20;34.33;;;19.08;;
51927;SDS011;37953;52.806;18.270;2022-10-26T11:55:51;41.55;;;21.05;;
51927;SDS011;37953;52.806;18.270;2022-10-26T11:58:20;41.13;;;21.45;;
51927;SDS011;37953;52.806;18.270;2022-10-26T12:00:50;33.15;;;19.70;;
51927;SDS011;37953;52.806;18.270;2022-10-26T12:03:24;36.25;;;19.48;;
51927;SDS011;37953;52.806;18.270;2022-10-26T12:05:55;53.03;;;26.20;;
51927;SDS011;37953;52.806;18.270;2022-10-26T12:13:56;57.22;;;27.83;;
51927;SDS011;37953;52.806;18.270;2022-10-26T12:16:45;54.92;;;26.13;;
51927;SDS011;37953;52.806;18.270;2022-10-26T12:22:31;70.60;;;32.78;;
51927;SDS011;37953;52.806;18.270;2022-10-26T12:30:14;91.78;;;42.33;;
51927;SDS011;37953;52.806;18.270;2022-10-26T12:37:53;96.03;;;41.40;;
51927;SDS011;37953;52.806;18.270;2022-10-26T12:45:44;72.35;;;34.90;;
51927;SDS011;37953;52.806;18.270;2022-10-26T12:48:22;76.20;;;35.55;;
51927;SDS011;37953;52.806;18.270;2022-10-26T12:50:51;72.68;;;35.25;;
51927;SDS011;37953;52.806;18.270;2022-10-26T12:53:18;73.32;;;35.25;;
51927;SDS011;37953;52.806;18.270;2022-10-26T13:01:54;75.15;;;36.50;;
51927;SDS011;37953;52.806;18.270;2022-10-26T13:04:24;80.82;;;38.97;;
51927;SDS011;37953;52.806;18.270;2022-10-26T13:09:53;73.30;;;38.20;;
51927;SDS011;37953;52.806;18.270;2022-10-26T13:15:38;68.55;;;36.25;;
51927;SDS011;37953;52.806;18.270;2022-10-26T13:18:18;78.22;;;38.92;;
51927;SDS011;37953;52.806;18.270;2022-10-26T13:23:40;77.70;;;38.78;;
51927;SDS011;37953;52.806;18.270;2022-10-26T13:26:14;74.15;;;36.80;;
51927;SDS011;37953;52.806;18.270;2022-10-26T13:34:04;61.20;;;33.65;;
51927;SDS011;37953;52.806;18.270;2022-10-26T13:39:31;71.97;;;33.85;;
51927;SDS011;37953;52.806;18.270;2022-10-26T13:42:02;66.25;;;32.45;;
51927;SDS011;37953;52.806;18.270;2022-10-26T13:50:07;60.97;;;32.90;;
51927;SDS011;37953;52.806;18.270;2022-10-26T13:52:43;63.33;;;32.80;;
51927;SDS011;37953;52.806;18.270;2022-10-26T13:57:42;62.90;;;32.50;;
51927;SDS011;37953;52.806;18.270;2022-10-26T14:00:21;67.78;;;35.78;;
51927;SDS011;37953;52.806;18.270;2022-10-26T14:02:47;71.15;;;35.63;;
51927;SDS011;37953;52.806;18.270;2022-10-26T14:05:17;111.93;;;60.28;;
51927;SDS011;37953;52.806;18.270;2022-10-26T14:07:56;290.10;;;155.52;;
51927;SDS011;37953;52.806;18.270;2022-10-26T14:10:32;175.48;;;86.85;;
51927;SDS011;37953;52.806;18.270;2022-10-26T14:12:59;165.18;;;77.28;;
51927;SDS011;37953;52.806;18.270;2022-10-26T14:15:27;140.55;;;64.28;;
51927;SDS011;37953;52.806;18.270;2022-10-26T14:18:00;129.70;;;53.60;;
51927;SDS011;37953;52.806;18.270;2022-10-26T14:20:39;109.60;;;47.35;;
51927;SDS011;37953;52.806;18.270;2022-10-26T14:23:22;106.90;;;46.10;;
51927;SDS011;37953;52.806;18.270;2022-10-26T14:25:52;98.32;;;47.03;;
51927;SDS011;37953;52.806;18.270;2022-10-26T14:28:20;105.25;;;54.22;;
51927;SDS011;37953;52.806;18.270;2022-10-26T14:30:51;67.25;;;35.50;;
51927;SDS011;37953;52.806;18.270;2022-10-26T14:33:18;53.45;;;27.10;;
51927;SDS011;37953;52.806;18.270;2022-10-26T14:35:53;46.50;;;26.10;;
51927;SDS011;37953;52.806;18.270;2022-10-26T14:38:23;45.55;;;25.73;;
51927;SDS011;37953;52.806;18.270;2022-10-26T14:41:21;52.25;;;26.90;;
51927;SDS011;37953;52.806;18.270;2022-10-26T14:43:48;37.33;;;22.30;;
51927;SDS011;37953;52.806;18.270;2022-10-26T14:46:16;39.90;;;23.42;;
51927;SDS011;37953;52.806;18.270;2022-10-26T14:48:56;41.35;;;24.65;;
51927;SDS011;37953;52.806;18.270;2022-10-26T14:51:33;49.40;;;27.52;;
51927;SDS011;37953;52.806;18.270;2022-10-26T14:54:00;51.45;;;28.65;;
51927;SDS011;37953;52.806;18.270;2022-10-26T14:56:52;53.08;;;29.17;;
51927;SDS011;37953;52.806;18.270;2022-10-26T14:59:29;48.70;;;27.88;;
51927;SDS011;37953;52.806;18.270;2022-10-26T15:02:14;47.67;;;27.15;;
51927;SDS011;37953;52.806;18.270;2022-10-26T15:04:57;46.42;;;27.60;;
51927;SDS011;37953;52.806;18.270;2022-10-26T15:07:33;43.85;;;26.65;;
51927;SDS011;37953;52.806;18.270;2022-10-26T15:10:03;42.75;;;26.80;;
51927;SDS011;37953;52.806;18.270;2022-10-26T15:12:31;48.13;;;28.05;;
51927;SDS011;37953;52.806;18.270;2022-10-26T15:17:37;50.28;;;28.20;;
51927;SDS011;37953;52.806;18.270;2022-10-26T15:20:15;54.35;;;30.52;;
51927;SDS011;37953;52.806;18.270;2022-10-26T15:22:48;73.70;;;35.50;;
51927;SDS011;37953;52.806;18.270;2022-10-26T15:25:25;66.97;;;34.63;;
51927;SDS011;37953;52.806;18.270;2022-10-26T15:33:40;78.57;;;40.92;;
51927;SDS011;37953;52.806;18.270;2022-10-26T15:36:12;99.57;;;53.72;;
51927;SDS011;37953;52.806;18.270;2022-10-26T15:38:41;99.63;;;51.88;;
51927;SDS011;37953;52.806;18.270;2022-10-26T15:41:12;102.75;;;53.20;;
51927;SDS011;37953;52.806;18.270;2022-10-26T15:43:45;99.03;;;52.10;;
51927;SDS011;37953;52.806;18.270;2022-10-26T15:46:13;102.70;;;55.92;;
51927;SDS011;37953;52.806;18.270;2022-10-26T15:48:39;109.90;;;56.40;;
51927;SDS011;37953;52.806;18.270;2022-10-26T15:51:09;94.38;;;51.58;;
51927;SDS011;37953;52.806;18.270;2022-10-26T15:53:38;85.35;;;48.05;;
51927;SDS011;37953;52.806;18.270;2022-10-26T15:56:08;66.85;;;39.90;;
51927;SDS011;37953;52.806;18.270;2022-10-26T15:58:39;62.88;;;32.38;;
51927;SDS011;37953;52.806;18.270;2022-10-26T16:01:05;54.63;;;28.75;;
51927;SDS011;37953;52.806;18.270;2022-10-26T16:03:31;52.03;;;27.42;;
51927;SDS011;37953;52.806;18.270;2022-10-26T16:05:58;56.13;;;27.90;;
51927;SDS011;37953;52.806;18.270;2022-10-26T16:08:31;47.38;;;26.92;;
51927;SDS011;37953;52.806;18.270;2022-10-26T16:10:58;50.28;;;25.98;;
51927;SDS011;37953;52.806;18.270;2022-10-26T16:13:24;47.30;;;25.23;;
51927;SDS011;37953;52.806;18.270;2022-10-26T16:15:51;55.58;;;25.77;;
51927;SDS011;37953;52.806;18.270;2022-10-26T16:18:17;54.47;;;25.13;;
51927;SDS011;37953;52.806;18.270;2022-10-26T16:20:44;54.63;;;26.55;;
51927;SDS011;37953;52.806;18.270;2022-10-26T16:23:10;60.28;;;29.17;;
51927;SDS011;37953;52.806;18.270;2022-10-26T16:25:43;68.53;;;28.77;;
51927;SDS011;37953;52.806;18.270;2022-10-26T16:28:11;66.00;;;28.80;;
51927;SDS011;37953;52.806;18.270;2022-10-26T16:30:40;61.97;;;28.70;;
51927;SDS011;37953;52.806;18.270;2022-10-26T16:33:12;67.03;;;30.58;;
51927;SDS011;37953;52.806;18.270;2022-10-26T16:35:38;68.53;;;32.67;;
51927;SDS011;37953;52.806;18.270;2022-10-26T16:38:04;72.53;;;33.03;;
51927;SDS011;37953;52.806;18.270;2022-10-26T16:40:31;68.80;;;33.85;;
51927;SDS011;37953;52.806;18.270;2022-10-26T16:42:57;67.07;;;31.90;;
51927;SDS011;37953;52.806;18.270;2022-10-26T16:45:23;104.47;;;32.58;;
51927;SDS011;37953;52.806;18.270;2022-10-26T16:47:49;62.75;;;29.88;;
51927;SDS011;37953;52.806;18.270;2022-10-26T16:50:15;64.85;;;31.90;;
51927;SDS011;37953;52.806;18.270;2022-10-26T16:52:55;57.30;;;32.72;;
51927;SDS011;37953;52.806;18.270;2022-10-26T16:55:21;65.60;;;31.80;;
51927;SDS011;37953;52.806;18.270;2022-10-26T16:57:48;68.82;;;38.47;;
51927;SDS011;37953;52.806;18.270;2022-10-26T17:00:15;83.18;;;46.45;;
51927;SDS011;37953;52.806;18.270;2022-10-26T17:02:41;90.30;;;47.20;;
51927;SDS011;37953;52.806;18.270;2022-10-26T17:05:07;87.65;;;45.65;;
51927;SDS011;37953;52.806;18.270;2022-10-26T17:07:34;91.22;;;45.22;;
51927;SDS011;37953;52.806;18.270;2022-10-26T17:10:00;98.90;;;46.92;;
51927;SDS011;37953;52.806;18.270;2022-10-26T17:12:26;94.78;;;46.17;;
51927;SDS011;37953;52.806;18.270;2022-10-26T17:14:52;91.95;;;43.72;;
51927;SDS011;37953;52.806;18.270;2022-10-26T17:17:20;84.88;;;40.80;;
51927;SDS011;37953;52.806;18.270;2022-10-26T17:19:46;75.50;;;38.95;;
51927;SDS011;37953;52.806;18.270;2022-10-26T17:22:12;73.10;;;36.55;;
51927;SDS011;37953;52.806;18.270;2022-10-26T17:24:38;67.70;;;35.72;;
51927;SDS011;37953;52.806;18.270;2022-10-26T17:27:04;74.30;;;36.22;;
51927;SDS011;37953;52.806;18.270;2022-10-26T17:29:30;65.03;;;34.88;;